Theodore Roosevelt National Park, ND

13:56 MDT le 06 juillet 2015 (GMT -0600)
Dickinson Municipal | | Change Station
CLOSE
Current Station
Aéroport
Location: Dickinson,
Altitude: 2592 ft
Stations météo à proximité

Alt. 2592 ft 46.80 °N, 102.80 °W | Updated 1 hour ago

Couvert
Couvert
66 ° F
Paraît 66 ° F
N
15
Vent Variable Vent de Nord

Aujourd'hui
Haut(e) -- | Bas -- ° F
--% Risque de précip.
Hier
Haut(e) -- | Bas -- ° F
Precip. -- pouce
5:03 AM 8:47 PM
Lune gibbeuse décroissante, 73% visible
Pression 30.16 pouce
Visibilité 9.0 Miles terrestres
Nuages Peu 4800 ft
Nuageux 7500 ft
Couvert 9000 ft
Point de rosée 51 ° F
Humidité 59%
Précipitations 0.00 pouce
Profondeur de la couche neigeuse Non disponible.
UV 3 sur 12
Pollen 3.40 sur 12
Qualité de l'air Non disponible.
Flu Activity Non disponible.
METAR KDIK 061856Z AUTO 35013KT 9SM FEW048 BKN075 OVC090 19/11 A3017 RMK AO2 SLP212 T01890106

More Conditions Fewer Conditions

Pression 30.16 pouce
Visibilité 9.0 Miles terrestres
Nuages Peu 4800 ft
Nuageux 7500 ft
Couvert 9000 ft
Point de rosée 51 ° F
Humidité 59%
Précipitations 0.00 pouce
Profondeur de la couche neigeuse Non disponible.
UV 3 sur 12
Pollen 3.40 sur 12
Qualité de l'air Non disponible.
Flu Activity Non disponible.
METAR KDIK 061856Z AUTO 35013KT 9SM FEW048 BKN075 OVC090 19/11 A3017 RMK AO2 SLP212 T01890106

More Conditions Fewer Conditions

10-Day Weather Forecast

×

Almanac

Astronomie

Jul. 06, 2015 Lever Coucher
Temps réel
Crépuscule civil
Crépuscule nautique
Crépuscule astronomique
Lune
Durée de lumière visible
Longueur du jour
Tomorrow will be .
, % of the Moon is Illuminated

Extrêmes aujourd'hui

State Highs State Lows

Community

WunderPhotos

Upload Photos

1,835,625 Photos téléchargées !

WunderBlogs® & News

Nearby

Qualité de l'air

  Qualité de l'air Indice de la qualité de l'air Polluant
Not available.

Épaisseur de neige

Station Depth Altitude

Activité sismique

Ville Distance Mag. Time & Date
Minimum magnitude displayed is 2.5.

Températures des eaux côtières

Lieu Température

Stations

Stations météo à proximité

Emplacement de la station Température Refroidissement éolien Point de rosée Humidité Vent Precip. Alt. Mise à jour Type